createdAt,value
2018-11-04T00:00:06.741Z,98416.73
2018-11-04T00:01:13.831Z,98415.89
2018-11-04T00:02:21.485Z,98417.94
2018-11-04T00:03:28.044Z,98414.64
2018-11-04T00:04:32.715Z,98413.86
2018-11-04T00:05:38.131Z,98411.84
2018-11-04T00:06:43.365Z,98417.15
2018-11-04T00:07:50.426Z,98413.03
2018-11-04T00:08:55.817Z,98412.20
2018-11-04T00:10:00.940Z,98414.63
2018-11-04T00:11:05.754Z,98412.91
2018-11-04T00:12:12.461Z,98412.86
2018-11-04T00:13:17.558Z,98418.61
2018-11-04T00:14:22.446Z,98410.75
2018-11-04T00:15:27.675Z,98411.98
2018-11-04T00:16:37.583Z,98409.88
2018-11-04T00:17:42.088Z,98406.98
2018-11-04T00:18:46.572Z,98406.22
2018-11-04T00:19:51.996Z,98403.77
2018-11-04T00:20:59.335Z,98409.18
2018-11-04T00:22:03.857Z,98408.08
2018-11-04T00:23:08.564Z,98401.95
2018-11-04T00:24:13.688Z,98403.97
2018-11-04T00:25:18.174Z,98401.03
2018-11-04T00:26:23.708Z,98406.40
2018-11-04T00:27:28.692Z,98402.69
2018-11-04T00:28:33.382Z,98402.25
2018-11-04T00:29:38.856Z,98398.15
2018-11-04T00:30:43.330Z,98393.17
2018-11-04T00:31:48.565Z,98397.29
2018-11-04T00:32:54.454Z,98396.06
2018-11-04T00:34:00.806Z,98394.02
2018-11-04T00:35:06.345Z,98395.72
2018-11-04T00:36:11.656Z,98397.41
2018-11-04T00:37:18.173Z,98393.72
2018-11-04T00:38:24.736Z,98396.58
2018-11-04T00:39:30.850Z,98392.94
2018-11-04T00:40:36.517Z,98392.95
2018-11-04T00:41:41.016Z,98387.17
2018-11-04T00:42:46.045Z,98382.25
2018-11-04T00:43:51.235Z,98387.19
2018-11-04T00:44:55.702Z,98382.66
2018-11-04T00:46:00.472Z,98380.17
2018-11-04T00:47:06.186Z,98381.31
2018-11-04T00:48:11.300Z,98382.14
2018-11-04T00:49:16.748Z,98377.08
2018-11-04T00:50:21.736Z,98371.20
2018-11-04T00:51:26.303Z,98379.70
2018-11-04T00:52:31.369Z,98378.02
2018-11-04T00:53:36.606Z,98378.41
2018-11-04T00:54:41.076Z,98368.95
2018-11-04T00:55:52.847Z,98368.58
2018-11-04T00:56:57.421Z,98368.97
2018-11-04T00:58:02.571Z,98368.58
2018-11-04T00:59:13.036Z,98364.98
2018-11-04T01:00:19.617Z,98362.93
2018-11-04T01:01:24.354Z,98357.58
2018-11-04T01:02:28.836Z,98363.75
2018-11-04T01:03:33.306Z,98362.42
2018-11-04T01:04:41.310Z,98356.67
2018-11-04T01:05:46.085Z,98354.97
2018-11-04T01:06:53.430Z,98357.80
2018-11-04T01:07:57.904Z,98351.95
2018-11-04T01:09:03.430Z,98351.62
2018-11-04T01:10:08.324Z,98345.95
2018-11-04T01:11:13.543Z,98345.97
2018-11-04T01:12:18.318Z,98349.58
2018-11-04T01:13:22.937Z,98345.78
2018-11-04T01:14:27.919Z,98344.16
2018-11-04T01:15:33.044Z,98339.61
2018-11-04T01:16:38.486Z,98337.48
2018-11-04T01:17:43.601Z,98341.11
2018-11-04T01:18:48.403Z,98338.53
2018-11-04T01:19:52.918Z,98336.79
2018-11-04T01:20:57.782Z,98333.02
2018-11-04T01:22:02.453Z,98335.50
2018-11-04T01:23:07.720Z,98333.02
2018-11-04T01:24:14.449Z,98328.91
2018-11-04T01:25:22.378Z,98328.51
2018-11-04T01:26:27.253Z,98328.19
2018-11-04T01:27:31.893Z,98327.77
2018-11-04T01:28:36.622Z,98321.94
2018-11-04T01:29:42.210Z,98325.59
2018-11-04T01:30:46.744Z,98321.77
2018-11-04T01:31:51.573Z,98317.95
2018-11-04T01:32:56.162Z,98319.73
2018-11-04T01:34:00.726Z,98317.23
2018-11-04T01:35:06.358Z,98309.32
2018-11-04T01:36:10.901Z,98311.45
2018-11-04T01:37:16.459Z,98310.27
2018-11-04T01:38:21.355Z,98310.23
2018-11-04T01:39:28.289Z,98303.75
2018-11-04T01:40:33.440Z,98304.19
2018-11-04T01:41:38.179Z,98302.95
2018-11-04T01:42:42.666Z,98301.27
2018-11-04T01:43:47.382Z,98297.08
2018-11-04T01:44:54.283Z,98297.89
2018-11-04T01:45:59.008Z,98302.45
2018-11-04T01:47:03.590Z,98297.58
2018-11-04T01:48:09.253Z,98295.95
2018-11-04T01:49:14.165Z,98298.48
2018-11-04T01:50:18.686Z,98291.00
2018-11-04T01:51:25.383Z,98291.70
2018-11-04T01:52:29.884Z,98286.64
2018-11-04T01:53:36.694Z,98287.80
2018-11-04T01:54:43.095Z,98281.16
2018-11-04T01:55:48.465Z,98278.30
2018-11-04T01:56:52.996Z,98273.31
2018-11-04T01:57:58.683Z,98276.70
2018-11-04T01:59:04.431Z,98275.14
2018-11-04T02:00:11.682Z,98272.97
2018-11-04T02:01:16.221Z,98264.01
2018-11-04T02:02:20.733Z,98264.95
2018-11-04T02:03:25.227Z,98260.86
2018-11-04T02:04:31.841Z,98258.78
2018-11-04T02:05:36.350Z,98255.78
2018-11-04T02:06:42.194Z,98252.85
2018-11-04T02:07:47.907Z,98250.27
2018-11-04T02:08:53.796Z,98241.48
2018-11-04T02:09:58.298Z,98242.73
2018-11-04T02:11:08.938Z,98245.48
2018-11-04T02:12:13.457Z,98240.45
2018-11-04T02:13:17.967Z,98244.95
2018-11-04T02:14:22.985Z,98243.80
2018-11-04T02:15:27.460Z,98241.03
2018-11-04T02:16:31.910Z,98236.66
2018-11-04T02:17:37.035Z,98242.41
2018-11-04T02:18:41.530Z,98232.48
2018-11-04T02:19:46.041Z,98233.31
2018-11-04T02:20:50.548Z,98228.80
2018-11-04T02:21:56.654Z,98227.16
2018-11-04T02:23:01.262Z,98225.92
2018-11-04T02:24:06.186Z,98221.08
2018-11-04T02:25:11.880Z,98229.36
2018-11-04T02:26:27.839Z,98227.27
2018-11-04T02:27:33.955Z,98222.52
2018-11-04T02:28:39.831Z,98223.70
2018-11-04T02:29:44.404Z,98220.72
2018-11-04T02:30:50.285Z,98219.78
2018-11-04T02:31:54.842Z,98213.56
2018-11-04T02:32:59.440Z,98215.67
2018-11-04T02:34:03.913Z,98215.28
2018-11-04T02:35:09.749Z,98219.00
2018-11-04T02:36:16.425Z,98216.13
2018-11-04T02:37:21.213Z,98210.69
2018-11-04T02:38:25.693Z,98210.34
2018-11-04T02:39:39.163Z,98201.67
2018-11-04T02:40:46.598Z,98205.33
2018-11-04T02:41:51.921Z,98201.50
2018-11-04T02:42:57.127Z,98196.05
2018-11-04T02:44:01.903Z,98201.38
2018-11-04T02:45:06.763Z,98202.55
2018-11-04T02:46:13.288Z,98200.89
2018-11-04T02:47:17.749Z,98196.69
2018-11-04T02:48:22.209Z,98195.84
2018-11-04T02:49:26.743Z,98199.98
2018-11-04T02:50:31.932Z,98195.09
2018-11-04T02:51:37.481Z,98195.81
2018-11-04T02:52:41.965Z,98197.98
2018-11-04T02:53:46.412Z,98190.52
2018-11-04T02:54:50.860Z,98189.22
2018-11-04T02:55:55.373Z,98199.86
2018-11-04T02:56:59.920Z,98193.66
2018-11-04T02:58:04.439Z,98197.32
2018-11-04T02:59:08.932Z,98192.39
2018-11-04T03:00:16.516Z,98189.88
2018-11-04T03:01:21.706Z,98190.23
2018-11-04T03:02:27.205Z,98196.02
2018-11-04T03:03:31.684Z,98186.09
2018-11-04T03:04:36.164Z,98187.27
2018-11-04T03:05:40.624Z,98186.78
2018-11-04T03:06:45.109Z,98191.25
2018-11-04T03:07:50.008Z,98182.96
2018-11-04T03:08:54.823Z,98179.60
2018-11-04T03:09:59.304Z,98182.08
2018-11-04T03:11:03.745Z,98182.02
2018-11-04T03:12:08.325Z,98184.04
2018-11-04T03:13:12.797Z,98178.72
2018-11-04T03:14:17.344Z,98181.95
2018-11-04T03:15:22.117Z,98179.86
2018-11-04T03:16:28.978Z,98178.55
2018-11-04T03:17:33.473Z,98176.81
2018-11-04T03:18:38.033Z,98175.51
2018-11-04T03:19:42.522Z,98170.09
2018-11-04T03:20:47.560Z,98167.56
2018-11-04T03:21:52.389Z,98170.02
2018-11-04T03:22:56.934Z,98166.25
2018-11-04T03:24:01.505Z,98170.34
2018-11-04T03:25:06.683Z,98170.73
2018-11-04T03:26:11.619Z,98168.25
2018-11-04T03:27:16.343Z,98169.59
2018-11-04T03:28:21.450Z,98175.34
2018-11-04T03:29:26.253Z,98171.12
2018-11-04T03:30:30.753Z,98171.94
2018-11-04T03:31:35.246Z,98171.47
2018-11-04T03:32:39.961Z,98172.36
2018-11-04T03:33:45.593Z,98173.31
2018-11-04T03:34:50.717Z,98172.89
2018-11-04T03:35:55.177Z,98171.36
2018-11-04T03:36:59.634Z,98168.88
2018-11-04T03:38:06.024Z,98166.11
2018-11-04T03:39:12.467Z,98171.85
2018-11-04T03:40:17.002Z,98168.88
2018-11-04T03:41:21.939Z,98170.41
2018-11-04T03:42:26.424Z,98163.67
2018-11-04T03:43:31.025Z,98169.84
2018-11-04T03:44:35.493Z,98166.11
2018-11-04T03:45:41.405Z,98164.45
2018-11-04T03:46:46.269Z,98158.27
2018-11-04T03:47:51.679Z,98162.50
2018-11-04T03:48:57.026Z,98164.09
2018-11-04T03:50:01.720Z,98161.93
2018-11-04T03:51:15.527Z,98162.78
2018-11-04T03:52:20.097Z,98165.34
2018-11-04T03:53:24.736Z,98168.25
2018-11-04T03:54:29.554Z,98163.31
2018-11-04T03:55:34.590Z,98165.86
2018-11-04T03:56:39.110Z,98163.09
2018-11-04T03:57:43.616Z,98163.42
2018-11-04T03:58:48.357Z,98154.63
2018-11-04T03:59:53.295Z,98161.54
2018-11-04T04:00:58.282Z,98158.52
2018-11-04T04:02:03.615Z,98162.28
2018-11-04T04:03:08.868Z,98155.66
2018-11-04T04:04:13.544Z,98151.89
2018-11-04T04:05:19.198Z,98156.82
2018-11-04T04:06:25.421Z,98148.13
2018-11-04T04:07:30.227Z,98153.80
2018-11-04T04:08:35.352Z,98152.17
2018-11-04T04:09:40.208Z,98150.94
2018-11-04T04:10:45.398Z,98155.83
2018-11-04T04:11:50.532Z,98153.73
2018-11-04T04:12:55.920Z,98157.34
2018-11-04T04:14:01.243Z,98149.16
2018-11-04T04:15:07.038Z,98147.28
2018-11-04T04:16:11.876Z,98148.98
2018-11-04T04:17:16.717Z,98148.66
2018-11-04T04:18:22.210Z,98153.27
2018-11-04T04:19:27.296Z,98152.00
2018-11-04T04:20:33.088Z,98153.17
2018-11-04T04:21:37.823Z,98151.00
2018-11-04T04:22:42.654Z,98154.02
2018-11-04T04:23:48.367Z,98151.67
2018-11-04T04:24:53.862Z,98154.09
2018-11-04T04:25:58.998Z,98144.52
2018-11-04T04:27:03.664Z,98144.86
2018-11-04T04:28:08.738Z,98153.48
2018-11-04T04:29:13.225Z,98143.55
2018-11-04T04:30:17.709Z,98144.80
2018-11-04T04:31:22.296Z,98145.58
2018-11-04T04:32:26.840Z,98150.05
2018-11-04T04:33:31.314Z,98145.89
2018-11-04T04:34:35.790Z,98141.70
2018-11-04T04:35:40.218Z,98141.70
2018-11-04T04:36:44.666Z,98139.30
2018-11-04T04:37:49.433Z,98133.13
2018-11-04T04:38:54.512Z,98138.05
2018-11-04T04:39:58.976Z,98138.09
2018-11-04T04:41:03.463Z,98132.80
2018-11-04T04:42:07.951Z,98130.39
2018-11-04T04:43:15.674Z,98133.23
2018-11-04T04:44:20.704Z,98127.69
2018-11-04T04:45:25.266Z,98128.39
2018-11-04T04:46:30.502Z,98128.66
2018-11-04T04:47:35.184Z,98125.68
2018-11-04T04:48:40.439Z,98125.60
2018-11-04T04:49:47.652Z,98121.45
2018-11-04T04:50:52.426Z,98121.84
2018-11-04T04:51:57.863Z,98123.86
2018-11-04T04:53:02.350Z,98124.28
2018-11-04T04:54:09.038Z,98119.70
2018-11-04T04:55:13.505Z,98121.72
2018-11-04T04:56:17.979Z,98121.77
2018-11-04T04:57:24.001Z,98118.30
2018-11-04T04:58:28.997Z,98119.86
2018-11-04T04:59:36.229Z,98115.59
2018-11-04T05:00:40.660Z,98118.03
2018-11-04T05:01:46.252Z,98116.72
2018-11-04T05:02:51.713Z,98120.25
2018-11-04T05:03:57.252Z,98119.78
2018-11-04T05:05:02.369Z,98125.06
2018-11-04T05:06:06.827Z,98117.61
2018-11-04T05:07:13.770Z,98120.41
2018-11-04T05:08:19.321Z,98116.41
2018-11-04T05:09:25.041Z,98118.77
2018-11-04T05:10:29.773Z,98115.81
2018-11-04T05:11:38.836Z,98114.06
2018-11-04T05:12:43.367Z,98118.95
2018-11-04T05:13:47.872Z,98115.62
2018-11-04T05:14:52.342Z,98112.24
2018-11-04T05:15:57.500Z,98115.19
2018-11-04T05:17:07.153Z,98110.18
2018-11-04T05:18:11.797Z,98115.46
2018-11-04T05:19:16.395Z,98111.27
2018-11-04T05:20:20.942Z,98114.18
2018-11-04T05:21:26.447Z,98110.10
2018-11-04T05:22:32.646Z,98106.38
2018-11-04T05:23:38.098Z,98108.09
2018-11-04T05:24:42.779Z,98102.61
2018-11-04T05:25:48.371Z,98100.86
2018-11-04T05:26:53.316Z,98102.83
2018-11-04T05:27:57.794Z,98106.09
2018-11-04T05:29:02.306Z,98097.69
2018-11-04T05:30:08.466Z,98099.28
2018-11-04T05:32:23.260Z,98094.04
2018-11-04T05:33:27.722Z,98093.95
2018-11-04T05:34:32.210Z,98093.14
2018-11-04T05:35:36.665Z,98092.76
2018-11-04T05:36:42.304Z,98093.70
2018-11-04T05:37:46.772Z,98090.44
2018-11-04T05:38:51.243Z,98091.30
2018-11-04T05:39:55.696Z,98092.20
2018-11-04T05:41:00.198Z,98095.89
2018-11-04T05:42:04.792Z,98096.27
2018-11-04T05:43:09.741Z,98087.52
2018-11-04T05:44:14.532Z,98096.22
2018-11-04T05:45:19.033Z,98092.06
2018-11-04T05:46:23.517Z,98090.31
2018-11-04T05:47:28.075Z,98086.50
2018-11-04T05:48:32.562Z,98091.78
2018-11-04T05:49:37.677Z,98095.00
2018-11-04T05:50:42.138Z,98089.94
2018-11-04T05:51:46.681Z,98085.30
2018-11-04T05:52:51.126Z,98089.38
2018-11-04T05:53:56.329Z,98090.14
2018-11-04T05:55:00.802Z,98092.16
2018-11-04T05:56:07.936Z,98093.88
2018-11-04T05:57:12.395Z,98092.34
2018-11-04T05:58:18.062Z,98092.81
2018-11-04T05:59:23.330Z,98092.77
2018-11-04T06:00:27.764Z,98094.81
2018-11-04T06:01:32.207Z,98097.22
2018-11-04T06:02:37.108Z,98100.23
2018-11-04T06:03:41.792Z,98096.75
2018-11-04T06:04:47.313Z,98099.62
2018-11-04T06:05:52.261Z,98101.72
2018-11-04T06:06:56.777Z,98093.53
2018-11-04T06:08:02.731Z,98103.82
2018-11-04T06:09:08.545Z,98100.01
2018-11-04T06:10:16.596Z,98102.11
2018-11-04T06:11:21.098Z,98097.95
2018-11-04T06:12:25.848Z,98100.70
2018-11-04T06:13:33.505Z,98101.72
2018-11-04T06:14:37.970Z,98107.28
2018-11-04T06:15:42.914Z,98108.02
2018-11-04T06:16:47.525Z,98105.19
2018-11-04T06:17:54.683Z,98102.66
2018-11-04T06:18:59.687Z,98097.52
2018-11-04T06:20:04.803Z,98106.53
2018-11-04T06:21:09.314Z,98106.73
2018-11-04T06:22:14.279Z,98098.93
2018-11-04T06:23:18.716Z,98104.55
2018-11-04T06:24:23.545Z,98105.67
2018-11-04T06:25:28.057Z,98107.64
2018-11-04T06:26:32.564Z,98102.97
2018-11-04T06:27:37.025Z,98104.38
2018-11-04T06:28:41.943Z,98103.09
2018-11-04T06:29:46.401Z,98103.87
2018-11-04T06:44:40.465Z,98108.66
2018-11-04T06:45:45.102Z,98114.80
2018-11-04T06:46:51.026Z,98111.36
2018-11-04T06:47:55.553Z,98114.19
2018-11-04T06:49:00.173Z,98113.67
2018-11-04T06:50:05.397Z,98109.51
2018-11-04T06:51:09.913Z,98108.27
2018-11-04T06:52:14.383Z,98109.89
2018-11-04T06:53:18.944Z,98109.03
2018-11-04T06:54:24.857Z,98104.83
2018-11-04T06:55:29.321Z,98109.32
2018-11-04T06:56:34.295Z,98108.46
2018-11-04T06:57:39.695Z,98106.31
2018-11-04T06:58:44.163Z,98104.59
2018-11-04T06:59:48.681Z,98110.34
2018-11-04T07:00:53.185Z,98110.34
2018-11-04T07:01:57.691Z,98110.68
2018-11-04T07:03:02.577Z,98106.47
2018-11-04T07:04:27.669Z,98114.23
2018-11-04T07:05:32.186Z,98110.64
2018-11-04T07:06:36.673Z,98110.50
2018-11-04T07:07:41.116Z,98114.57
2018-11-04T07:08:45.595Z,98113.05
2018-11-04T07:09:50.663Z,98106.91
2018-11-04T07:10:55.204Z,98107.68
2018-11-04T07:12:00.299Z,98107.19
2018-11-04T07:13:04.914Z,98103.64
2018-11-04T07:14:09.883Z,98106.04
2018-11-04T07:15:14.367Z,98105.56
2018-11-04T07:16:19.225Z,98110.50
2018-11-04T07:17:24.193Z,98112.36
2018-11-04T07:18:28.660Z,98109.97
2018-11-04T07:19:33.137Z,98105.41
2018-11-04T07:20:37.687Z,98104.13
2018-11-04T07:21:42.155Z,98110.98
2018-11-04T07:22:47.135Z,98104.89
2018-11-04T07:23:51.671Z,98107.22
2018-11-04T07:24:58.366Z,98115.84
2018-11-04T07:26:03.541Z,98107.12
2018-11-04T07:27:09.622Z,98105.92
2018-11-04T07:28:15.114Z,98105.11
2018-11-04T07:29:19.948Z,98104.72
2018-11-04T07:30:24.523Z,98105.97
2018-11-04T07:31:29.049Z,98106.88
2018-11-04T07:32:33.557Z,98111.00
2018-11-04T07:35:16.351Z,98108.72
2018-11-04T07:36:21.832Z,98104.94
2018-11-04T07:37:27.236Z,98102.83
2018-11-04T07:38:31.748Z,98109.04
2018-11-04T07:39:36.224Z,98100.32
2018-11-04T07:40:41.092Z,98106.94
2018-11-04T07:41:47.997Z,98103.96
2018-11-04T07:42:52.845Z,98103.58
2018-11-04T07:43:57.337Z,98103.09
2018-11-04T07:45:01.837Z,98103.91
2018-11-04T07:46:07.350Z,98098.70
2018-11-04T07:47:12.097Z,98100.32
2018-11-04T07:48:20.325Z,98102.23
2018-11-04T07:49:25.197Z,98100.45
2018-11-04T07:50:29.698Z,98100.69
2018-11-04T07:51:34.275Z,98101.30
2018-11-04T07:52:40.365Z,98095.72
2018-11-04T07:53:45.299Z,98096.91
2018-11-04T07:54:49.807Z,98093.89
2018-11-04T07:55:55.979Z,98091.78
2018-11-04T07:57:01.061Z,98089.61
2018-11-04T07:58:06.946Z,98092.44
2018-11-04T07:59:11.402Z,98089.36
2018-11-04T08:00:17.043Z,98086.41
2018-11-04T08:01:21.538Z,98089.34
2018-11-04T08:03:49.371Z,98094.27
2018-11-04T08:04:54.859Z,98083.81
2018-11-04T08:06:00.505Z,98085.44
2018-11-04T08:07:05.000Z,98082.89
2018-11-04T08:08:09.507Z,98080.83
2018-11-04T08:09:14.225Z,98081.27
2018-11-04T08:10:19.686Z,98081.42
2018-11-04T08:11:25.034Z,98076.05
2018-11-04T08:12:29.582Z,98076.00
2018-11-04T08:13:34.574Z,98074.70
2018-11-04T08:14:38.995Z,98074.59
2018-11-04T08:15:43.790Z,98073.52
2018-11-04T08:16:49.825Z,98073.31
2018-11-04T08:17:57.189Z,98070.69
2018-11-04T08:19:02.212Z,98070.09
2018-11-04T08:20:06.853Z,98065.70
2018-11-04T08:21:12.375Z,98061.79
2018-11-04T08:22:17.862Z,98059.55
2018-11-04T08:23:23.376Z,98058.59
2018-11-04T08:24:30.453Z,98058.48
2018-11-04T08:25:36.900Z,98057.56
2018-11-04T08:27:00.219Z,98055.33
2018-11-04T08:28:07.081Z,98051.36
2018-11-04T08:29:13.482Z,98051.22
2018-11-04T08:30:23.709Z,98042.86
2018-11-04T08:31:31.549Z,98041.50
2018-11-04T08:32:36.785Z,98042.25
2018-11-04T08:33:41.283Z,98042.52
2018-11-04T08:34:46.746Z,98039.96
2018-11-04T08:35:53.668Z,98042.66
2018-11-04T08:36:59.823Z,98037.52
2018-11-04T08:38:06.232Z,98041.96
2018-11-04T08:39:11.773Z,98036.84
2018-11-04T08:40:17.467Z,98038.09
2018-11-04T08:41:23.245Z,98038.48
2018-11-04T08:42:31.669Z,98037.11
2018-11-04T08:43:36.737Z,98041.55
2018-11-04T08:44:45.184Z,98042.62
2018-11-04T08:45:50.334Z,98039.43
2018-11-04T08:46:56.434Z,98033.13
2018-11-04T08:48:03.399Z,98034.54
2018-11-04T08:49:09.744Z,98028.42
2018-11-04T08:50:16.425Z,98025.31
2018-11-04T08:51:20.941Z,98025.19
2018-11-04T08:52:25.922Z,98023.38
2018-11-04T08:53:30.524Z,98022.91
2018-11-04T08:54:37.416Z,98029.03
2018-11-04T08:55:44.145Z,98031.84
2018-11-04T08:56:52.518Z,98031.53
2018-11-04T08:57:58.529Z,98025.10
2018-11-04T08:59:03.663Z,98027.28
2018-11-04T09:00:10.338Z,98019.73
2018-11-04T09:01:15.665Z,98025.78
2018-11-04T09:02:24.224Z,98021.48
2018-11-04T09:03:29.793Z,98025.47
2018-11-04T09:04:35.384Z,98024.50
2018-11-04T09:05:40.652Z,98026.00
2018-11-04T09:06:55.493Z,98021.69
2018-11-04T09:08:11.713Z,98024.06
2018-11-04T09:09:19.889Z,98020.12
2018-11-04T09:10:29.423Z,98021.61
2018-11-04T09:11:39.915Z,98022.05
2018-11-04T09:12:49.371Z,98025.80
2018-11-04T09:13:56.569Z,98033.23
2018-11-04T09:15:03.853Z,98030.73
2018-11-04T09:17:37.826Z,98032.11
2018-11-04T09:18:44.455Z,98037.48
2018-11-04T09:19:50.104Z,98029.05
2018-11-04T09:20:58.714Z,98029.63
2018-11-04T09:22:08.633Z,98027.69
2018-11-04T09:23:15.781Z,98029.38
2018-11-04T09:24:22.032Z,98032.12
2018-11-04T09:25:28.062Z,98027.12
2018-11-04T09:26:32.579Z,98028.43
2018-11-04T09:27:37.942Z,98018.30
2018-11-04T09:28:43.414Z,98025.73
2018-11-04T09:29:49.745Z,98027.26
2018-11-04T09:30:54.287Z,98029.13
2018-11-04T09:31:58.937Z,98021.35
2018-11-04T09:33:04.664Z,98022.41
2018-11-04T09:34:20.407Z,98027.58
2018-11-04T09:35:25.676Z,98016.45
2018-11-04T09:36:33.048Z,98021.18
2018-11-04T09:37:38.757Z,98016.85
2018-11-04T09:38:45.524Z,98020.74
2018-11-04T09:41:10.925Z,98015.47
2018-11-04T09:42:15.801Z,98013.16
2018-11-04T09:43:20.752Z,98010.95
2018-11-04T09:44:25.317Z,98015.61
2018-11-04T09:45:30.952Z,98018.86
2018-11-04T09:46:37.272Z,98017.68
2018-11-04T09:47:43.349Z,98010.54
2018-11-04T09:48:49.849Z,98004.87
2018-11-04T09:49:55.157Z,98014.72
2018-11-04T09:50:59.627Z,98011.26
2018-11-04T09:52:04.173Z,98017.08
2018-11-04T09:53:09.012Z,98014.13
2018-11-04T09:54:13.594Z,98013.92
2018-11-04T09:55:18.598Z,98014.22
2018-11-04T09:56:23.133Z,98017.33
2018-11-04T09:57:28.386Z,98008.89
2018-11-04T09:58:32.925Z,98008.00
2018-11-04T09:59:38.909Z,98010.88
2018-11-04T10:00:43.617Z,98007.45
2018-11-04T10:01:54.196Z,98014.75
2018-11-04T10:02:59.558Z,98012.33
2018-11-04T10:04:04.126Z,98008.34
2018-11-04T10:05:09.557Z,98007.23
2018-11-04T10:06:19.786Z,98015.12
2018-11-04T10:07:24.666Z,98012.98
2018-11-04T10:08:29.662Z,98009.16
2018-11-04T10:09:36.055Z,98014.97
2018-11-04T10:10:43.927Z,98011.22
2018-11-04T10:11:48.526Z,98013.35
2018-11-04T10:12:54.763Z,98011.59
2018-11-04T10:13:59.760Z,98010.19
2018-11-04T10:15:09.907Z,98008.94
2018-11-04T10:16:16.835Z,98007.31
2018-11-04T10:17:22.168Z,98002.81
2018-11-04T10:18:26.911Z,98000.67
2018-11-04T10:19:32.453Z,98006.80
2018-11-04T10:20:39.401Z,97998.39
2018-11-04T10:21:46.020Z,98003.19
2018-11-04T10:22:50.595Z,98001.86
2018-11-04T10:23:55.396Z,98005.10
2018-11-04T10:25:00.451Z,98002.01
2018-11-04T10:26:05.090Z,98000.76
2018-11-04T10:27:11.114Z,97993.68
2018-11-04T10:28:16.250Z,97993.75
2018-11-04T10:29:26.272Z,97997.95
2018-11-04T10:30:32.078Z,97985.87
2018-11-04T10:31:37.797Z,97997.95
2018-11-04T10:32:49.178Z,97989.11
2018-11-04T10:33:55.806Z,97988.00
2018-11-04T10:35:04.849Z,97995.38
2018-11-04T10:36:10.820Z,97992.50
2018-11-04T10:37:15.889Z,97998.62
2018-11-04T10:38:20.569Z,97992.23
2018-11-04T10:39:25.069Z,97995.19
2018-11-04T10:40:30.056Z,97993.98
2018-11-04T10:41:35.715Z,97987.12
2018-11-04T10:42:41.307Z,97991.25
2018-11-04T10:43:46.306Z,97991.25
2018-11-04T10:44:54.381Z,97981.30
2018-11-04T10:46:00.996Z,97987.78
2018-11-04T10:47:06.530Z,97989.70
2018-11-04T10:48:11.214Z,97981.00
2018-11-04T10:49:18.449Z,97979.75
2018-11-04T10:50:23.150Z,97980.78
2018-11-04T10:51:27.687Z,97979.61
2018-11-04T10:52:33.208Z,97981.59
2018-11-04T10:53:39.368Z,97981.08
2018-11-04T10:54:51.793Z,97981.41
2018-11-04T10:55:57.928Z,97977.20
2018-11-04T10:58:16.403Z,97978.09
2018-11-04T10:59:32.254Z,97982.66
2018-11-04T11:00:43.572Z,97978.16
2018-11-04T11:01:55.461Z,97978.89
2018-11-04T11:03:00.602Z,97971.52
2018-11-04T11:04:07.250Z,97978.60
2018-11-04T11:05:12.666Z,97976.17
2018-11-04T11:06:18.308Z,97980.30
2018-11-04T11:07:22.879Z,97975.58
2018-11-04T11:08:27.493Z,97973.73
2018-11-04T11:09:32.180Z,97969.97
2018-11-04T11:10:40.046Z,97962.09
2018-11-04T11:11:46.318Z,97964.15
2018-11-04T11:12:54.648Z,97968.28
2018-11-04T11:14:00.231Z,97960.31
2018-11-04T11:15:06.074Z,97961.49
2018-11-04T11:16:11.629Z,97956.11
2018-11-04T11:17:19.604Z,97950.66
2018-11-04T11:18:25.316Z,97956.84
2018-11-04T11:19:31.486Z,97956.03
2018-11-04T11:20:40.086Z,97942.55
2018-11-04T11:21:45.788Z,97944.33
2018-11-04T11:22:54.431Z,97939.23
2018-11-04T11:24:17.780Z,97940.56
2018-11-04T11:25:24.284Z,97940.20
2018-11-04T11:26:30.103Z,97936.44
2018-11-04T11:27:36.119Z,97936.00
2018-11-04T11:28:43.401Z,97933.78
2018-11-04T11:29:57.049Z,97938.56
2018-11-04T11:43:54.006Z,97925.30
2018-11-04T11:45:00.691Z,97920.58
2018-11-04T11:46:07.084Z,97918.95
2018-11-04T11:47:13.299Z,97913.42
2018-11-04T11:48:22.083Z,97913.27
2018-11-04T11:49:42.899Z,97910.76
2018-11-04T11:50:48.552Z,97912.90
2018-11-04T11:51:54.337Z,97913.78
2018-11-04T11:53:00.785Z,97909.22
2018-11-04T11:54:11.983Z,97905.09
2018-11-04T11:55:22.710Z,97912.81
2018-11-04T11:56:28.291Z,97901.98
2018-11-04T11:57:36.200Z,97908.70
2018-11-04T12:04:12.599Z,97901.25
2018-11-04T12:05:19.629Z,97896.44
2018-11-04T12:06:32.030Z,97894.25
2018-11-04T12:07:38.761Z,97896.59
2018-11-04T12:08:47.348Z,97899.84
2018-11-04T12:09:54.067Z,97893.57
2018-11-04T12:14:26.379Z,97893.57
2018-11-04T12:15:36.811Z,97888.34
2018-11-04T12:16:41.812Z,97888.66
2018-11-04T12:17:47.118Z,97891.38
2018-11-04T12:18:53.853Z,97881.56
2018-11-04T12:19:58.600Z,97883.77
2018-11-04T12:21:03.093Z,97883.98
2018-11-04T12:22:07.584Z,97884.43
2018-11-04T12:23:16.488Z,97880.14
2018-11-04T12:24:22.051Z,97885.89
2018-11-04T12:25:26.545Z,97882.05
2018-11-04T12:26:30.992Z,97885.37
2018-11-04T12:27:36.940Z,97881.08
2018-11-04T12:28:42.233Z,97888.53
2018-11-04T12:29:48.328Z,97882.41
2018-11-04T12:31:01.271Z,97877.84
2018-11-04T12:32:05.736Z,97876.95
2018-11-04T12:33:10.429Z,97872.55
2018-11-04T12:34:18.494Z,97869.88
2018-11-04T12:35:23.502Z,97867.89
2018-11-04T12:36:32.730Z,97855.52
2018-11-04T12:37:43.414Z,97855.52
2018-11-04T12:38:48.652Z,97858.15
2018-11-04T12:39:53.219Z,97848.80
2018-11-04T12:40:58.301Z,97850.50
2018-11-04T12:42:03.488Z,97851.59
2018-11-04T12:43:13.105Z,97855.64
2018-11-04T12:44:19.053Z,97847.23
2018-11-04T12:45:24.957Z,97846.41
2018-11-04T12:46:29.450Z,97848.92
2018-11-04T12:47:34.162Z,97844.80
2018-11-04T12:48:38.684Z,97843.55
2018-11-04T12:49:43.759Z,97843.47
2018-11-04T12:52:04.744Z,97840.59
2018-11-04T12:53:09.713Z,97843.47
2018-11-04T12:54:16.064Z,97837.48
2018-11-04T12:55:22.532Z,97836.14
2018-11-04T12:56:28.071Z,97827.08
2018-11-04T12:57:34.612Z,97827.08
2018-11-04T12:58:39.104Z,97825.75
2018-11-04T12:59:47.476Z,97821.45
2018-11-04T13:01:00.390Z,97833.47
2018-11-04T13:02:19.826Z,97824.53
2018-11-04T13:03:25.171Z,97817.61
2018-11-04T13:04:30.570Z,97819.23
2018-11-04T13:05:35.088Z,97812.96
2018-11-04T13:06:40.692Z,97809.36
2018-11-04T13:07:48.124Z,97808.39
2018-11-04T13:08:53.511Z,97811.87
2018-11-04T13:09:59.732Z,97808.11
2018-11-04T13:11:04.649Z,97805.16
2018-11-04T13:12:13.894Z,97807.14
2018-11-04T13:13:18.820Z,97803.01
2018-11-04T13:14:26.019Z,97797.91
2018-11-04T13:15:32.931Z,97795.68
2018-11-04T13:16:39.069Z,97797.58
2018-11-04T13:17:44.819Z,97791.17
2018-11-04T13:18:50.577Z,97800.01
2018-11-04T13:20:00.527Z,97791.98
2018-11-04T13:21:05.924Z,97792.27
2018-11-04T13:23:33.367Z,97783.15
2018-11-04T13:24:37.945Z,97778.02
2018-11-04T13:25:43.034Z,97774.25
2018-11-04T13:26:53.994Z,97771.58
2018-11-04T13:27:58.580Z,97777.32
2018-11-04T13:29:05.863Z,97774.09
2018-11-04T13:30:15.343Z,97775.34
2018-11-04T13:31:20.844Z,97776.06
2018-11-04T13:32:26.504Z,97774.92
2018-11-04T13:33:32.617Z,97767.39
2018-11-04T13:34:38.106Z,97771.44
2018-11-04T13:35:42.811Z,97770.72
2018-11-04T13:36:49.354Z,97769.02
2018-11-04T13:37:55.769Z,97769.02
2018-11-04T13:40:15.321Z,97778.44